sensor_id;sensor_type;location;lat;lon;timestamp;P1;durP1;ratioP1;P2;durP2;ratioP2
30307;SDS011;17114;52.314;8.910;2022-10-23T00:01:15;9.80;;;4.25;;
30307;SDS011;17114;52.314;8.910;2022-10-23T00:03:56;6.22;;;3.30;;
30307;SDS011;17114;52.314;8.910;2022-10-23T00:06:28;10.23;;;4.85;;
30307;SDS011;17114;52.314;8.910;2022-10-23T00:08:56;15.32;;;3.80;;
30307;SDS011;17114;52.314;8.910;2022-10-23T00:11:25;10.18;;;3.90;;
30307;SDS011;17114;52.314;8.910;2022-10-23T00:13:54;6.47;;;3.72;;
30307;SDS011;17114;52.314;8.910;2022-10-23T00:16:23;6.90;;;3.75;;
30307;SDS011;17114;52.314;8.910;2022-10-23T00:18:50;7.38;;;4.32;;
30307;SDS011;17114;52.314;8.910;2022-10-23T00:21:16;6.78;;;3.78;;
30307;SDS011;17114;52.314;8.910;2022-10-23T00:23:44;7.55;;;3.95;;
30307;SDS011;17114;52.314;8.910;2022-10-23T00:26:11;8.90;;;4.22;;
30307;SDS011;17114;52.314;8.910;2022-10-23T00:28:42;6.93;;;3.70;;
30307;SDS011;17114;52.314;8.910;2022-10-23T00:31:10;10.68;;;4.15;;
30307;SDS011;17114;52.314;8.910;2022-10-23T00:33:38;9.68;;;4.18;;
30307;SDS011;17114;52.314;8.910;2022-10-23T00:36:05;8.55;;;4.20;;
30307;SDS011;17114;52.314;8.910;2022-10-23T00:38:33;8.48;;;3.90;;
30307;SDS011;17114;52.314;8.910;2022-10-23T00:41:00;8.25;;;4.05;;
30307;SDS011;17114;52.314;8.910;2022-10-23T00:43:28;7.30;;;4.00;;
30307;SDS011;17114;52.314;8.910;2022-10-23T00:45:56;10.00;;;4.13;;
30307;SDS011;17114;52.314;8.910;2022-10-23T00:48:24;6.63;;;3.33;;
30307;SDS011;17114;52.314;8.910;2022-10-23T00:50:52;6.82;;;3.85;;
30307;SDS011;17114;52.314;8.910;2022-10-23T00:53:19;7.63;;;3.95;;
30307;SDS011;17114;52.314;8.910;2022-10-23T00:55:48;6.70;;;4.05;;
30307;SDS011;17114;52.314;8.910;2022-10-23T00:58:17;7.72;;;4.18;;
30307;SDS011;17114;52.314;8.910;2022-10-23T01:00:49;5.70;;;3.47;;
30307;SDS011;17114;52.314;8.910;2022-10-23T01:03:22;9.43;;;3.95;;
30307;SDS011;17114;52.314;8.910;2022-10-23T01:05:54;8.75;;;3.58;;
30307;SDS011;17114;52.314;8.910;2022-10-23T01:09:17;8.05;;;3.58;;
30307;SDS011;17114;52.314;8.910;2022-10-23T01:11:44;7.95;;;4.35;;
30307;SDS011;17114;52.314;8.910;2022-10-23T01:17:15;7.07;;;3.80;;
30307;SDS011;17114;52.314;8.910;2022-10-23T01:22:37;8.60;;;3.67;;
30307;SDS011;17114;52.314;8.910;2022-10-23T01:27:45;7.18;;;3.90;;
30307;SDS011;17114;52.314;8.910;2022-10-23T01:30:16;8.75;;;3.95;;
30307;SDS011;17114;52.314;8.910;2022-10-23T01:32:54;10.55;;;3.92;;
30307;SDS011;17114;52.314;8.910;2022-10-23T01:35:36;7.85;;;3.95;;
30307;SDS011;17114;52.314;8.910;2022-10-23T01:38:11;5.15;;;3.05;;
30307;SDS011;17114;52.314;8.910;2022-10-23T01:40:46;5.65;;;3.75;;
30307;SDS011;17114;52.314;8.910;2022-10-23T01:45:50;9.77;;;5.03;;
30307;SDS011;17114;52.314;8.910;2022-10-23T01:48:22;12.65;;;4.55;;
30307;SDS011;17114;52.314;8.910;2022-10-23T01:50:53;8.65;;;4.55;;
30307;SDS011;17114;52.314;8.910;2022-10-23T01:53:23;8.50;;;5.03;;
30307;SDS011;17114;52.314;8.910;2022-10-23T01:55:52;7.57;;;4.95;;
30307;SDS011;17114;52.314;8.910;2022-10-23T01:58:20;9.63;;;5.43;;
30307;SDS011;17114;52.314;8.910;2022-10-23T02:00:49;10.30;;;5.63;;
30307;SDS011;17114;52.314;8.910;2022-10-23T02:03:17;12.30;;;5.50;;
30307;SDS011;17114;52.314;8.910;2022-10-23T02:05:44;9.60;;;5.07;;
30307;SDS011;17114;52.314;8.910;2022-10-23T02:08:11;7.13;;;5.00;;
30307;SDS011;17114;52.314;8.910;2022-10-23T02:10:52;9.80;;;5.30;;
30307;SDS011;17114;52.314;8.910;2022-10-23T02:13:28;8.25;;;5.13;;
30307;SDS011;17114;52.314;8.910;2022-10-23T02:21:30;9.35;;;5.50;;
30307;SDS011;17114;52.314;8.910;2022-10-23T02:24:21;6.40;;;4.95;;
30307;SDS011;17114;52.314;8.910;2022-10-23T02:27:02;7.53;;;5.25;;
30307;SDS011;17114;52.314;8.910;2022-10-23T02:29:36;10.55;;;6.13;;
30307;SDS011;17114;52.314;8.910;2022-10-23T02:32:16;10.27;;;5.70;;
30307;SDS011;17114;52.314;8.910;2022-10-23T02:34:45;9.15;;;6.10;;
30307;SDS011;17114;52.314;8.910;2022-10-23T02:37:13;11.65;;;6.50;;
30307;SDS011;17114;52.314;8.910;2022-10-23T02:39:40;12.43;;;6.20;;
30307;SDS011;17114;52.314;8.910;2022-10-23T02:44:49;10.60;;;6.22;;
30307;SDS011;17114;52.314;8.910;2022-10-23T02:56:06;8.20;;;5.07;;
30307;SDS011;17114;52.314;8.910;2022-10-23T03:01:45;7.82;;;5.43;;
30307;SDS011;17114;52.314;8.910;2022-10-23T03:04:15;6.93;;;5.03;;
30307;SDS011;17114;52.314;8.910;2022-10-23T03:06:44;8.57;;;5.20;;
30307;SDS011;17114;52.314;8.910;2022-10-23T03:09:11;7.72;;;4.63;;
30307;SDS011;17114;52.314;8.910;2022-10-23T03:11:38;7.40;;;4.50;;
30307;SDS011;17114;52.314;8.910;2022-10-23T03:14:05;11.40;;;4.85;;
30307;SDS011;17114;52.314;8.910;2022-10-23T03:16:32;7.20;;;4.75;;
30307;SDS011;17114;52.314;8.910;2022-10-23T03:18:59;11.25;;;5.22;;
30307;SDS011;17114;52.314;8.910;2022-10-23T03:21:25;8.63;;;4.82;;
30307;SDS011;17114;52.314;8.910;2022-10-23T03:23:52;7.85;;;4.72;;
30307;SDS011;17114;52.314;8.910;2022-10-23T03:26:19;7.20;;;4.93;;
30307;SDS011;17114;52.314;8.910;2022-10-23T03:28:46;9.23;;;4.97;;
30307;SDS011;17114;52.314;8.910;2022-10-23T03:31:13;9.25;;;5.47;;
30307;SDS011;17114;52.314;8.910;2022-10-23T03:33:39;11.52;;;4.95;;
30307;SDS011;17114;52.314;8.910;2022-10-23T03:36:06;7.90;;;4.80;;
30307;SDS011;17114;52.314;8.910;2022-10-23T03:38:34;12.38;;;5.47;;
30307;SDS011;17114;52.314;8.910;2022-10-23T03:41:01;8.20;;;5.00;;
30307;SDS011;17114;52.314;8.910;2022-10-23T03:43:27;7.63;;;5.13;;
30307;SDS011;17114;52.314;8.910;2022-10-23T03:45:55;8.52;;;5.28;;
30307;SDS011;17114;52.314;8.910;2022-10-23T03:48:22;7.32;;;4.70;;
30307;SDS011;17114;52.314;8.910;2022-10-23T03:50:50;7.38;;;4.97;;
30307;SDS011;17114;52.314;8.910;2022-10-23T03:53:17;8.48;;;4.82;;
30307;SDS011;17114;52.314;8.910;2022-10-23T03:55:43;11.80;;;5.78;;
30307;SDS011;17114;52.314;8.910;2022-10-23T03:58:10;10.43;;;5.20;;
30307;SDS011;17114;52.314;8.910;2022-10-23T04:00:37;13.75;;;5.57;;
30307;SDS011;17114;52.314;8.910;2022-10-23T04:03:04;10.10;;;5.20;;
30307;SDS011;17114;52.314;8.910;2022-10-23T04:05:31;10.10;;;5.50;;
30307;SDS011;17114;52.314;8.910;2022-10-23T04:07:58;9.75;;;4.90;;
30307;SDS011;17114;52.314;8.910;2022-10-23T04:10:24;9.30;;;4.82;;
30307;SDS011;17114;52.314;8.910;2022-10-23T04:12:51;9.95;;;4.68;;
30307;SDS011;17114;52.314;8.910;2022-10-23T04:15:18;9.70;;;4.90;;
30307;SDS011;17114;52.314;8.910;2022-10-23T04:17:45;11.10;;;5.47;;
30307;SDS011;17114;52.314;8.910;2022-10-23T04:20:11;13.40;;;5.78;;
30307;SDS011;17114;52.314;8.910;2022-10-23T04:22:38;9.70;;;4.40;;
30307;SDS011;17114;52.314;8.910;2022-10-23T04:25:06;11.10;;;5.07;;
30307;SDS011;17114;52.314;8.910;2022-10-23T04:27:33;8.68;;;4.43;;
30307;SDS011;17114;52.314;8.910;2022-10-23T04:30:00;10.18;;;4.60;;
30307;SDS011;17114;52.314;8.910;2022-10-23T04:32:28;11.52;;;4.95;;
30307;SDS011;17114;52.314;8.910;2022-10-23T04:34:56;7.47;;;4.30;;
30307;SDS011;17114;52.314;8.910;2022-10-23T04:37:23;7.63;;;4.75;;
30307;SDS011;17114;52.314;8.910;2022-10-23T04:39:50;9.43;;;5.05;;
30307;SDS011;17114;52.314;8.910;2022-10-23T04:42:16;8.95;;;4.90;;
30307;SDS011;17114;52.314;8.910;2022-10-23T04:44:43;15.77;;;5.50;;
30307;SDS011;17114;52.314;8.910;2022-10-23T04:47:10;14.80;;;5.30;;
30307;SDS011;17114;52.314;8.910;2022-10-23T04:49:37;10.80;;;4.45;;
30307;SDS011;17114;52.314;8.910;2022-10-23T04:52:04;21.13;;;5.65;;
30307;SDS011;17114;52.314;8.910;2022-10-23T04:54:36;18.35;;;5.07;;
30307;SDS011;17114;52.314;8.910;2022-10-23T04:57:04;10.20;;;4.13;;
30307;SDS011;17114;52.314;8.910;2022-10-23T04:59:31;11.05;;;4.50;;
30307;SDS011;17114;52.314;8.910;2022-10-23T05:01:58;14.57;;;4.90;;
30307;SDS011;17114;52.314;8.910;2022-10-23T05:04:24;7.10;;;3.72;;
30307;SDS011;17114;52.314;8.910;2022-10-23T05:06:51;15.60;;;3.88;;
30307;SDS011;17114;52.314;8.910;2022-10-23T05:09:18;10.20;;;4.45;;
30307;SDS011;17114;52.314;8.910;2022-10-23T05:11:45;19.67;;;4.28;;
30307;SDS011;17114;52.314;8.910;2022-10-23T05:14:12;16.63;;;4.00;;
30307;SDS011;17114;52.314;8.910;2022-10-23T05:19:26;9.35;;;3.95;;
30307;SDS011;17114;52.314;8.910;2022-10-23T05:21:59;12.52;;;4.00;;
30307;SDS011;17114;52.314;8.910;2022-10-23T05:24:27;12.65;;;4.10;;
30307;SDS011;17114;52.314;8.910;2022-10-23T05:26:54;12.77;;;3.65;;
30307;SDS011;17114;52.314;8.910;2022-10-23T05:29:22;14.18;;;4.22;;
30307;SDS011;17114;52.314;8.910;2022-10-23T05:31:49;12.95;;;4.05;;
30307;SDS011;17114;52.314;8.910;2022-10-23T05:34:19;13.68;;;3.80;;
30307;SDS011;17114;52.314;8.910;2022-10-23T05:36:50;12.77;;;4.28;;
30307;SDS011;17114;52.314;8.910;2022-10-23T05:39:18;10.85;;;4.57;;
30307;SDS011;17114;52.314;8.910;2022-10-23T05:41:45;17.38;;;4.60;;
30307;SDS011;17114;52.314;8.910;2022-10-23T05:44:12;9.73;;;3.72;;
30307;SDS011;17114;52.314;8.910;2022-10-23T05:46:40;7.03;;;3.65;;
30307;SDS011;17114;52.314;8.910;2022-10-23T05:49:07;10.55;;;3.70;;
30307;SDS011;17114;52.314;8.910;2022-10-23T05:51:35;11.07;;;4.07;;
30307;SDS011;17114;52.314;8.910;2022-10-23T05:54:03;9.98;;;3.88;;
30307;SDS011;17114;52.314;8.910;2022-10-23T05:56:36;7.22;;;3.75;;
30307;SDS011;17114;52.314;8.910;2022-10-23T05:59:06;12.02;;;4.03;;
30307;SDS011;17114;52.314;8.910;2022-10-23T06:01:34;14.75;;;4.28;;
30307;SDS011;17114;52.314;8.910;2022-10-23T06:04:02;14.75;;;4.53;;
30307;SDS011;17114;52.314;8.910;2022-10-23T06:06:29;10.30;;;4.13;;
30307;SDS011;17114;52.314;8.910;2022-10-23T06:08:56;10.85;;;3.83;;
30307;SDS011;17114;52.314;8.910;2022-10-23T06:11:23;15.73;;;4.25;;
30307;SDS011;17114;52.314;8.910;2022-10-23T06:14:31;13.60;;;5.00;;
30307;SDS011;17114;52.314;8.910;2022-10-23T06:16:58;14.05;;;4.55;;
30307;SDS011;17114;52.314;8.910;2022-10-23T06:19:25;10.35;;;4.10;;
30307;SDS011;17114;52.314;8.910;2022-10-23T06:21:52;8.68;;;4.35;;
30307;SDS011;17114;52.314;8.910;2022-10-23T06:24:19;10.23;;;3.83;;
30307;SDS011;17114;52.314;8.910;2022-10-23T06:26:46;11.52;;;4.50;;
30307;SDS011;17114;52.314;8.910;2022-10-23T06:29:13;12.25;;;4.35;;
30307;SDS011;17114;52.314;8.910;2022-10-23T06:31:40;11.23;;;4.55;;
30307;SDS011;17114;52.314;8.910;2022-10-23T06:34:08;12.00;;;5.10;;
30307;SDS011;17114;52.314;8.910;2022-10-23T06:36:36;12.48;;;4.68;;
30307;SDS011;17114;52.314;8.910;2022-10-23T06:39:04;8.82;;;4.35;;
30307;SDS011;17114;52.314;8.910;2022-10-23T06:41:31;13.05;;;5.28;;
30307;SDS011;17114;52.314;8.910;2022-10-23T06:43:58;16.88;;;6.10;;
30307;SDS011;17114;52.314;8.910;2022-10-23T06:46:25;15.32;;;6.65;;
30307;SDS011;17114;52.314;8.910;2022-10-23T06:48:52;11.55;;;5.50;;
30307;SDS011;17114;52.314;8.910;2022-10-23T06:51:19;16.20;;;6.18;;
30307;SDS011;17114;52.314;8.910;2022-10-23T06:53:47;9.85;;;5.85;;
30307;SDS011;17114;52.314;8.910;2022-10-23T06:56:14;11.48;;;5.05;;
30307;SDS011;17114;52.314;8.910;2022-10-23T06:58:41;12.52;;;6.25;;
30307;SDS011;17114;52.314;8.910;2022-10-23T07:01:09;14.63;;;6.03;;
30307;SDS011;17114;52.314;8.910;2022-10-23T07:03:38;14.65;;;5.50;;
30307;SDS011;17114;52.314;8.910;2022-10-23T07:06:05;11.75;;;5.00;;
30307;SDS011;17114;52.314;8.910;2022-10-23T07:08:35;13.85;;;5.68;;
30307;SDS011;17114;52.314;8.910;2022-10-23T07:11:04;12.27;;;5.25;;
30307;SDS011;17114;52.314;8.910;2022-10-23T07:13:46;14.38;;;5.15;;
30307;SDS011;17114;52.314;8.910;2022-10-23T07:16:14;16.00;;;5.00;;
30307;SDS011;17114;52.314;8.910;2022-10-23T07:18:46;10.32;;;4.88;;
30307;SDS011;17114;52.314;8.910;2022-10-23T07:21:14;15.50;;;5.63;;
30307;SDS011;17114;52.314;8.910;2022-10-23T07:23:41;11.65;;;5.72;;
30307;SDS011;17114;52.314;8.910;2022-10-23T07:26:13;15.25;;;5.38;;
30307;SDS011;17114;52.314;8.910;2022-10-23T07:28:42;11.77;;;5.90;;
30307;SDS011;17114;52.314;8.910;2022-10-23T07:31:10;14.00;;;6.15;;
30307;SDS011;17114;52.314;8.910;2022-10-23T07:33:38;15.38;;;5.80;;
30307;SDS011;17114;52.314;8.910;2022-10-23T07:36:05;11.45;;;5.50;;
30307;SDS011;17114;52.314;8.910;2022-10-23T07:38:33;15.70;;;5.68;;
30307;SDS011;17114;52.314;8.910;2022-10-23T07:41:11;13.98;;;5.38;;
30307;SDS011;17114;52.314;8.910;2022-10-23T07:43:38;16.23;;;5.97;;
30307;SDS011;17114;52.314;8.910;2022-10-23T07:46:05;12.50;;;4.25;;
30307;SDS011;17114;52.314;8.910;2022-10-23T07:48:35;10.57;;;3.88;;
30307;SDS011;17114;52.314;8.910;2022-10-23T07:51:04;8.98;;;3.50;;
30307;SDS011;17114;52.314;8.910;2022-10-23T07:57:20;9.63;;;3.80;;
30307;SDS011;17114;52.314;8.910;2022-10-23T08:00:09;12.93;;;4.07;;
30307;SDS011;17114;52.314;8.910;2022-10-23T08:02:37;7.55;;;3.88;;
30307;SDS011;17114;52.314;8.910;2022-10-23T08:05:04;18.65;;;4.85;;
30307;SDS011;17114;52.314;8.910;2022-10-23T08:07:31;10.45;;;4.80;;
30307;SDS011;17114;52.314;8.910;2022-10-23T08:10:01;10.55;;;5.00;;
30307;SDS011;17114;52.314;8.910;2022-10-23T08:12:28;12.52;;;4.78;;
30307;SDS011;17114;52.314;8.910;2022-10-23T08:14:55;13.32;;;4.78;;
30307;SDS011;17114;52.314;8.910;2022-10-23T08:17:22;11.90;;;3.58;;
30307;SDS011;17114;52.314;8.910;2022-10-23T08:19:53;9.98;;;3.53;;
30307;SDS011;17114;52.314;8.910;2022-10-23T08:22:20;8.80;;;3.80;;
30307;SDS011;17114;52.314;8.910;2022-10-23T08:24:47;12.07;;;4.18;;
30307;SDS011;17114;52.314;8.910;2022-10-23T08:27:14;9.35;;;3.33;;
30307;SDS011;17114;52.314;8.910;2022-10-23T08:29:41;11.38;;;3.28;;
30307;SDS011;17114;52.314;8.910;2022-10-23T08:32:08;8.25;;;2.85;;
30307;SDS011;17114;52.314;8.910;2022-10-23T08:34:35;12.13;;;3.47;;
30307;SDS011;17114;52.314;8.910;2022-10-23T08:37:03;8.07;;;3.30;;
30307;SDS011;17114;52.314;8.910;2022-10-23T08:39:30;10.50;;;3.30;;
30307;SDS011;17114;52.314;8.910;2022-10-23T08:41:57;6.50;;;3.42;;
30307;SDS011;17114;52.314;8.910;2022-10-23T08:47:18;9.27;;;3.10;;
30307;SDS011;17114;52.314;8.910;2022-10-23T08:49:59;7.40;;;3.10;;
30307;SDS011;17114;52.314;8.910;2022-10-23T08:52:32;9.73;;;3.25;;
30307;SDS011;17114;52.314;8.910;2022-10-23T08:55:15;14.85;;;2.92;;
30307;SDS011;17114;52.314;8.910;2022-10-23T08:58:17;9.45;;;2.72;;
30307;SDS011;17114;52.314;8.910;2022-10-23T09:00:48;9.55;;;2.90;;
30307;SDS011;17114;52.314;8.910;2022-10-23T09:03:16;8.57;;;3.22;;
30307;SDS011;17114;52.314;8.910;2022-10-23T09:11:15;9.23;;;3.45;;
30307;SDS011;17114;52.314;8.910;2022-10-23T09:19:23;4.88;;;2.20;;
30307;SDS011;17114;52.314;8.910;2022-10-23T09:21:53;9.45;;;3.17;;
30307;SDS011;17114;52.314;8.910;2022-10-23T09:24:22;7.90;;;2.70;;
30307;SDS011;17114;52.314;8.910;2022-10-23T09:26:50;8.32;;;2.60;;
30307;SDS011;17114;52.314;8.910;2022-10-23T09:29:29;11.27;;;2.75;;
30307;SDS011;17114;52.314;8.910;2022-10-23T09:32:03;9.75;;;2.70;;
30307;SDS011;17114;52.314;8.910;2022-10-23T09:34:32;6.95;;;2.72;;
30307;SDS011;17114;52.314;8.910;2022-10-23T09:37:01;5.97;;;2.95;;
30307;SDS011;17114;52.314;8.910;2022-10-23T09:39:42;7.72;;;2.42;;
30307;SDS011;17114;52.314;8.910;2022-10-23T09:42:13;12.77;;;2.70;;
30307;SDS011;17114;52.314;8.910;2022-10-23T09:44:50;12.00;;;3.35;;
30307;SDS011;17114;52.314;8.910;2022-10-23T09:47:19;8.05;;;2.80;;
30307;SDS011;17114;52.314;8.910;2022-10-23T09:49:50;8.02;;;3.05;;
30307;SDS011;17114;52.314;8.910;2022-10-23T09:52:35;6.93;;;2.60;;
30307;SDS011;17114;52.314;8.910;2022-10-23T09:55:17;9.57;;;2.90;;
30307;SDS011;17114;52.314;8.910;2022-10-23T09:57:46;4.47;;;2.50;;
30307;SDS011;17114;52.314;8.910;2022-10-23T10:05:29;6.63;;;2.70;;
30307;SDS011;17114;52.314;8.910;2022-10-23T10:10:55;9.70;;;2.67;;
30307;SDS011;17114;52.314;8.910;2022-10-23T10:18:35;4.63;;;1.90;;
30307;SDS011;17114;52.314;8.910;2022-10-23T10:24:11;6.32;;;2.10;;
30307;SDS011;17114;52.314;8.910;2022-10-23T10:29:43;6.22;;;2.08;;
30307;SDS011;17114;52.314;8.910;2022-10-23T10:32:21;4.90;;;1.90;;
30307;SDS011;17114;52.314;8.910;2022-10-23T10:38:15;9.23;;;1.98;;
30307;SDS011;17114;52.314;8.910;2022-10-23T10:41:10;5.15;;;1.90;;
30307;SDS011;17114;52.314;8.910;2022-10-23T10:46:35;7.07;;;2.10;;
30307;SDS011;17114;52.314;8.910;2022-10-23T10:49:11;2.70;;;1.48;;
30307;SDS011;17114;52.314;8.910;2022-10-23T10:52:01;6.13;;;1.90;;
30307;SDS011;17114;52.314;8.910;2022-10-23T10:57:22;4.82;;;1.40;;
30307;SDS011;17114;52.314;8.910;2022-10-23T11:00:00;5.95;;;1.60;;
30307;SDS011;17114;52.314;8.910;2022-10-23T11:02:34;4.65;;;1.73;;
30307;SDS011;17114;52.314;8.910;2022-10-23T11:05:27;5.25;;;1.85;;
30307;SDS011;17114;52.314;8.910;2022-10-23T11:10:51;4.70;;;1.70;;
30307;SDS011;17114;52.314;8.910;2022-10-23T11:13:32;6.32;;;2.03;;
30307;SDS011;17114;52.314;8.910;2022-10-23T11:16:25;3.80;;;2.10;;
30307;SDS011;17114;52.314;8.910;2022-10-23T11:21:56;6.43;;;2.17;;
30307;SDS011;17114;52.314;8.910;2022-10-23T11:36:40;8.55;;;2.10;;
30307;SDS011;17114;52.314;8.910;2022-10-23T11:39:21;4.35;;;1.40;;
30307;SDS011;17114;52.314;8.910;2022-10-23T11:41:55;5.22;;;1.60;;
30307;SDS011;17114;52.314;8.910;2022-10-23T11:52:38;5.80;;;1.95;;
30307;SDS011;17114;52.314;8.910;2022-10-23T11:55:38;8.15;;;1.83;;
30307;SDS011;17114;52.314;8.910;2022-10-23T11:58:22;3.03;;;1.60;;
30307;SDS011;17114;52.314;8.910;2022-10-23T12:00:58;4.60;;;1.80;;
30307;SDS011;17114;52.314;8.910;2022-10-23T12:03:46;5.82;;;1.50;;
30307;SDS011;17114;52.314;8.910;2022-10-23T12:06:21;6.75;;;1.75;;
30307;SDS011;17114;52.314;8.910;2022-10-23T12:08:58;3.05;;;1.80;;
30307;SDS011;17114;52.314;8.910;2022-10-23T12:14:28;7.18;;;2.05;;
30307;SDS011;17114;52.314;8.910;2022-10-23T12:17:00;5.40;;;1.63;;
30307;SDS011;17114;52.314;8.910;2022-10-23T12:19:28;5.35;;;1.75;;
30307;SDS011;17114;52.314;8.910;2022-10-23T12:22:09;4.47;;;1.80;;
30307;SDS011;17114;52.314;8.910;2022-10-23T12:27:28;6.03;;;1.60;;
30307;SDS011;17114;52.314;8.910;2022-10-23T12:30:16;4.75;;;1.73;;
30307;SDS011;17114;52.314;8.910;2022-10-23T12:38:19;5.65;;;1.73;;
30307;SDS011;17114;52.314;8.910;2022-10-23T12:41:14;2.67;;;1.50;;
30307;SDS011;17114;52.314;8.910;2022-10-23T12:43:43;5.65;;;1.60;;
30307;SDS011;17114;52.314;8.910;2022-10-23T12:46:20;5.82;;;1.95;;
30307;SDS011;17114;52.314;8.910;2022-10-23T12:49:28;7.97;;;1.58;;
30307;SDS011;17114;52.314;8.910;2022-10-23T12:52:04;4.93;;;1.63;;
30307;SDS011;17114;52.314;8.910;2022-10-23T12:54:40;7.10;;;1.95;;
30307;SDS011;17114;52.314;8.910;2022-10-23T12:57:41;5.32;;;1.75;;
30307;SDS011;17114;52.314;8.910;2022-10-23T13:00:07;3.65;;;1.60;;
30307;SDS011;17114;52.314;8.910;2022-10-23T13:02:36;3.60;;;1.70;;
30307;SDS011;17114;52.314;8.910;2022-10-23T13:05:07;4.00;;;1.70;;
30307;SDS011;17114;52.314;8.910;2022-10-23T13:07:42;4.70;;;1.70;;
30307;SDS011;17114;52.314;8.910;2022-10-23T13:10:15;5.05;;;1.70;;
30307;SDS011;17114;52.314;8.910;2022-10-23T13:12:53;23.67;;;3.75;;
30307;SDS011;17114;52.314;8.910;2022-10-23T13:15:23;6.50;;;1.65;;
30307;SDS011;17114;52.314;8.910;2022-10-23T13:20:20;6.00;;;1.85;;
30307;SDS011;17114;52.314;8.910;2022-10-23T13:22:51;3.03;;;1.60;;
30307;SDS011;17114;52.314;8.910;2022-10-23T13:25:27;7.50;;;1.80;;
30307;SDS011;17114;52.314;8.910;2022-10-23T13:28:12;5.82;;;1.60;;
30307;SDS011;17114;52.314;8.910;2022-10-23T13:31:02;6.47;;;1.80;;
30307;SDS011;17114;52.314;8.910;2022-10-23T13:33:50;3.05;;;1.48;;
30307;SDS011;17114;52.314;8.910;2022-10-23T13:36:24;3.47;;;1.40;;
30307;SDS011;17114;52.314;8.910;2022-10-23T13:41:38;3.78;;;1.42;;
30307;SDS011;17114;52.314;8.910;2022-10-23T13:44:08;5.63;;;1.67;;
30307;SDS011;17114;52.314;8.910;2022-10-23T13:46:41;2.00;;;1.02;;
30307;SDS011;17114;52.314;8.910;2022-10-23T13:49:09;8.27;;;2.08;;
30307;SDS011;17114;52.314;8.910;2022-10-23T13:51:54;5.47;;;1.95;;
30307;SDS011;17114;52.314;8.910;2022-10-23T13:54:23;6.03;;;1.85;;
30307;SDS011;17114;52.314;8.910;2022-10-23T13:56:52;6.18;;;1.75;;
30307;SDS011;17114;52.314;8.910;2022-10-23T13:59:20;8.02;;;1.67;;
30307;SDS011;17114;52.314;8.910;2022-10-23T14:01:48;6.43;;;1.73;;
30307;SDS011;17114;52.314;8.910;2022-10-23T14:04:16;6.35;;;1.90;;
30307;SDS011;17114;52.314;8.910;2022-10-23T14:06:44;3.33;;;1.63;;
30307;SDS011;17114;52.314;8.910;2022-10-23T14:09:13;4.80;;;1.60;;
30307;SDS011;17114;52.314;8.910;2022-10-23T14:11:41;7.47;;;1.45;;
30307;SDS011;17114;52.314;8.910;2022-10-23T14:14:09;11.00;;;2.13;;
30307;SDS011;17114;52.314;8.910;2022-10-23T14:16:39;3.42;;;1.27;;
30307;SDS011;17114;52.314;8.910;2022-10-23T14:19:06;3.28;;;1.63;;
30307;SDS011;17114;52.314;8.910;2022-10-23T14:21:34;5.63;;;1.80;;
30307;SDS011;17114;52.314;8.910;2022-10-23T14:24:01;10.32;;;1.65;;
30307;SDS011;17114;52.314;8.910;2022-10-23T14:26:28;7.00;;;1.80;;
30307;SDS011;17114;52.314;8.910;2022-10-23T14:28:56;4.70;;;1.70;;
30307;SDS011;17114;52.314;8.910;2022-10-23T14:31:32;6.32;;;1.77;;
30307;SDS011;17114;52.314;8.910;2022-10-23T14:33:59;3.80;;;1.90;;
30307;SDS011;17114;52.314;8.910;2022-10-23T14:36:27;5.22;;;1.98;;
30307;SDS011;17114;52.314;8.910;2022-10-23T14:39:14;5.10;;;1.67;;
30307;SDS011;17114;52.314;8.910;2022-10-23T14:41:41;1.70;;;1.35;;
30307;SDS011;17114;52.314;8.910;2022-10-23T14:44:08;3.85;;;1.50;;
30307;SDS011;17114;52.314;8.910;2022-10-23T14:46:36;11.40;;;2.25;;
30307;SDS011;17114;52.314;8.910;2022-10-23T14:49:04;3.88;;;1.67;;
30307;SDS011;17114;52.314;8.910;2022-10-23T14:51:31;5.15;;;1.42;;
30307;SDS011;17114;52.314;8.910;2022-10-23T14:53:59;5.07;;;1.63;;
30307;SDS011;17114;52.314;8.910;2022-10-23T14:56:29;5.53;;;1.60;;
30307;SDS011;17114;52.314;8.910;2022-10-23T14:59:01;5.40;;;1.88;;
30307;SDS011;17114;52.314;8.910;2022-10-23T15:01:37;2.08;;;1.25;;
30307;SDS011;17114;52.314;8.910;2022-10-23T15:04:11;4.13;;;1.70;;
30307;SDS011;17114;52.314;8.910;2022-10-23T15:06:42;2.63;;;1.30;;
30307;SDS011;17114;52.314;8.910;2022-10-23T15:09:13;5.95;;;1.60;;
30307;SDS011;17114;52.314;8.910;2022-10-23T15:11:44;7.35;;;1.55;;
30307;SDS011;17114;52.314;8.910;2022-10-23T15:14:13;5.70;;;1.65;;
30307;SDS011;17114;52.314;8.910;2022-10-23T15:16:40;3.30;;;1.23;;
30307;SDS011;17114;52.314;8.910;2022-10-23T15:19:11;2.63;;;1.25;;
30307;SDS011;17114;52.314;8.910;2022-10-23T15:21:44;6.20;;;1.50;;
30307;SDS011;17114;52.314;8.910;2022-10-23T15:24:12;3.80;;;1.30;;
30307;SDS011;17114;52.314;8.910;2022-10-23T15:26:40;5.50;;;1.55;;
30307;SDS011;17114;52.314;8.910;2022-10-23T15:29:09;4.60;;;1.40;;
30307;SDS011;17114;52.314;8.910;2022-10-23T15:34:07;3.30;;;1.60;;
30307;SDS011;17114;52.314;8.910;2022-10-23T15:36:40;3.70;;;1.60;;
30307;SDS011;17114;52.314;8.910;2022-10-23T15:39:08;5.03;;;2.45;;
30307;SDS011;17114;52.314;8.910;2022-10-23T15:41:37;4.70;;;2.00;;
30307;SDS011;17114;52.314;8.910;2022-10-23T15:44:07;5.65;;;1.85;;
30307;SDS011;17114;52.314;8.910;2022-10-23T15:46:38;4.93;;;1.70;;
30307;SDS011;17114;52.314;8.910;2022-10-23T15:49:05;4.72;;;2.00;;
30307;SDS011;17114;52.314;8.910;2022-10-23T15:51:34;3.58;;;1.88;;
30307;SDS011;17114;52.314;8.910;2022-10-23T15:54:03;3.03;;;1.52;;
30307;SDS011;17114;52.314;8.910;2022-10-23T15:56:34;3.70;;;1.95;;
30307;SDS011;17114;52.314;8.910;2022-10-23T15:59:02;4.97;;;1.75;;
30307;SDS011;17114;52.314;8.910;2022-10-23T16:01:29;7.53;;;1.90;;
30307;SDS011;17114;52.314;8.910;2022-10-23T16:04:00;7.25;;;1.40;;
30307;SDS011;17114;52.314;8.910;2022-10-23T16:06:27;6.15;;;1.63;;
30307;SDS011;17114;52.314;8.910;2022-10-23T16:08:55;3.80;;;1.80;;
30307;SDS011;17114;52.314;8.910;2022-10-23T16:11:24;2.53;;;1.42;;
30307;SDS011;17114;52.314;8.910;2022-10-23T16:13:53;4.13;;;1.92;;
30307;SDS011;17114;52.314;8.910;2022-10-23T16:16:22;3.67;;;1.50;;
30307;SDS011;17114;52.314;8.910;2022-10-23T16:18:49;6.18;;;2.00;;
30307;SDS011;17114;52.314;8.910;2022-10-23T16:21:21;6.80;;;1.75;;
30307;SDS011;17114;52.314;8.910;2022-10-23T16:23:50;5.20;;;1.65;;
30307;SDS011;17114;52.314;8.910;2022-10-23T16:26:19;3.78;;;1.73;;
30307;SDS011;17114;52.314;8.910;2022-10-23T16:28:46;3.30;;;2.10;;
30307;SDS011;17114;52.314;8.910;2022-10-23T16:31:18;4.70;;;1.85;;
30307;SDS011;17114;52.314;8.910;2022-10-23T16:33:46;6.72;;;1.70;;
30307;SDS011;17114;52.314;8.910;2022-10-23T16:36:14;4.95;;;1.95;;
30307;SDS011;17114;52.314;8.910;2022-10-23T16:38:43;5.70;;;2.03;;
30307;SDS011;17114;52.314;8.910;2022-10-23T16:41:10;5.15;;;2.55;;
30307;SDS011;17114;52.314;8.910;2022-10-23T16:43:37;4.35;;;2.63;;
30307;SDS011;17114;52.314;8.910;2022-10-23T16:46:12;4.85;;;2.33;;
30307;SDS011;17114;52.314;8.910;2022-10-23T16:48:41;8.18;;;3.30;;
30307;SDS011;17114;52.314;8.910;2022-10-23T16:51:13;7.65;;;3.70;;
30307;SDS011;17114;52.314;8.910;2022-10-23T16:53:42;5.60;;;2.58;;
30307;SDS011;17114;52.314;8.910;2022-10-23T16:56:11;4.03;;;2.28;;
30307;SDS011;17114;52.314;8.910;2022-10-23T16:58:41;6.53;;;4.70;;
30307;SDS011;17114;52.314;8.910;2022-10-23T17:01:11;7.70;;;4.45;;
30307;SDS011;17114;52.314;8.910;2022-10-23T17:03:39;9.85;;;4.50;;
30307;SDS011;17114;52.314;8.910;2022-10-23T17:06:09;7.47;;;4.30;;
30307;SDS011;17114;52.314;8.910;2022-10-23T17:08:39;8.05;;;3.75;;
30307;SDS011;17114;52.314;8.910;2022-10-23T17:13:42;5.00;;;1.92;;